sensor_id;sensor_type;location;lat;lon;timestamp;P1;durP1;ratioP1;P2;durP2;ratioP2
74967;SDS011;63523;51.880;12.630;2023-08-07T00:00:15;6.40;;;1.97;;
74967;SDS011;63523;51.880;12.630;2023-08-07T00:02:40;6.07;;;1.80;;
74967;SDS011;63523;51.880;12.630;2023-08-07T00:05:05;4.38;;;1.70;;
74967;SDS011;63523;51.880;12.630;2023-08-07T00:07:31;4.57;;;1.40;;
74967;SDS011;63523;51.880;12.630;2023-08-07T00:09:56;5.87;;;1.60;;
74967;SDS011;63523;51.880;12.630;2023-08-07T00:12:22;4.27;;;1.40;;
74967;SDS011;63523;51.880;12.630;2023-08-07T00:14:50;3.97;;;1.50;;
74967;SDS011;63523;51.880;12.630;2023-08-07T00:17:16;3.42;;;1.50;;
74967;SDS011;63523;51.880;12.630;2023-08-07T00:19:41;4.05;;;1.20;;
74967;SDS011;63523;51.880;12.630;2023-08-07T00:22:07;5.00;;;1.50;;
74967;SDS011;63523;51.880;12.630;2023-08-07T00:24:32;4.73;;;1.47;;
74967;SDS011;63523;51.880;12.630;2023-08-07T00:26:57;4.90;;;1.43;;
74967;SDS011;63523;51.880;12.630;2023-08-07T00:29:22;3.63;;;1.20;;
74967;SDS011;63523;51.880;12.630;2023-08-07T00:31:48;3.97;;;1.70;;
74967;SDS011;63523;51.880;12.630;2023-08-07T00:34:13;3.63;;;1.40;;
74967;SDS011;63523;51.880;12.630;2023-08-07T00:36:38;4.40;;;1.33;;
74967;SDS011;63523;51.880;12.630;2023-08-07T00:39:04;4.60;;;1.50;;
74967;SDS011;63523;51.880;12.630;2023-08-07T00:41:29;5.87;;;1.57;;
74967;SDS011;63523;51.880;12.630;2023-08-07T00:43:54;4.53;;;1.30;;
74967;SDS011;63523;51.880;12.630;2023-08-07T00:46:20;5.17;;;1.63;;
74967;SDS011;63523;51.880;12.630;2023-08-07T00:48:45;4.53;;;1.33;;
74967;SDS011;63523;51.880;12.630;2023-08-07T00:51:11;3.67;;;1.52;;
74967;SDS011;63523;51.880;12.630;2023-08-07T00:53:37;4.97;;;1.47;;
74967;SDS011;63523;51.880;12.630;2023-08-07T00:56:03;4.20;;;1.30;;
74967;SDS011;63523;51.880;12.630;2023-08-07T00:58:29;8.50;;;1.70;;
74967;SDS011;63523;51.880;12.630;2023-08-07T01:00:55;4.10;;;1.40;;
74967;SDS011;63523;51.880;12.630;2023-08-07T01:03:20;7.53;;;1.40;;
74967;SDS011;63523;51.880;12.630;2023-08-07T01:05:46;4.77;;;1.60;;
74967;SDS011;63523;51.880;12.630;2023-08-07T01:08:11;5.23;;;1.70;;
74967;SDS011;63523;51.880;12.630;2023-08-07T01:11:02;5.25;;;1.50;;
74967;SDS011;63523;51.880;12.630;2023-08-07T01:13:42;4.70;;;1.33;;
74967;SDS011;63523;51.880;12.630;2023-08-07T01:16:18;5.28;;;1.30;;
74967;SDS011;63523;51.880;12.630;2023-08-07T01:18:49;3.87;;;1.50;;
74967;SDS011;63523;51.880;12.630;2023-08-07T01:21:18;4.38;;;1.40;;
74967;SDS011;63523;51.880;12.630;2023-08-07T01:23:45;3.95;;;1.50;;
74967;SDS011;63523;51.880;12.630;2023-08-07T01:26:14;4.72;;;1.40;;
74967;SDS011;63523;51.880;12.630;2023-08-07T01:28:42;4.17;;;1.30;;
74967;SDS011;63523;51.880;12.630;2023-08-07T01:31:14;4.75;;;1.40;;
74967;SDS011;63523;51.880;12.630;2023-08-07T01:33:48;4.85;;;1.40;;
74967;SDS011;63523;51.880;12.630;2023-08-07T01:36:21;4.72;;;1.35;;
74967;SDS011;63523;51.880;12.630;2023-08-07T01:38:49;5.20;;;1.70;;
74967;SDS011;63523;51.880;12.630;2023-08-07T01:41:15;3.80;;;1.23;;
74967;SDS011;63523;51.880;12.630;2023-08-07T01:43:41;3.67;;;1.42;;
74967;SDS011;63523;51.880;12.630;2023-08-07T01:46:06;4.87;;;1.40;;
74967;SDS011;63523;51.880;12.630;2023-08-07T01:48:32;4.33;;;1.57;;
74967;SDS011;63523;51.880;12.630;2023-08-07T01:50:57;4.10;;;1.33;;
74967;SDS011;63523;51.880;12.630;2023-08-07T01:53:22;3.70;;;1.33;;
74967;SDS011;63523;51.880;12.630;2023-08-07T01:55:48;5.23;;;1.40;;
74967;SDS011;63523;51.880;12.630;2023-08-07T01:58:13;5.00;;;1.53;;
74967;SDS011;63523;51.880;12.630;2023-08-07T02:00:38;6.00;;;2.20;;
74967;SDS011;63523;51.880;12.630;2023-08-07T02:03:03;7.40;;;2.43;;
74967;SDS011;63523;51.880;12.630;2023-08-07T02:05:29;8.07;;;3.13;;
74967;SDS011;63523;51.880;12.630;2023-08-07T02:07:54;6.77;;;2.57;;
74967;SDS011;63523;51.880;12.630;2023-08-07T02:10:21;10.10;;;3.95;;
74967;SDS011;63523;51.880;12.630;2023-08-07T02:12:47;13.00;;;4.43;;
74967;SDS011;63523;51.880;12.630;2023-08-07T02:15:13;14.88;;;5.85;;
74967;SDS011;63523;51.880;12.630;2023-08-07T02:17:38;14.10;;;5.87;;
74967;SDS011;63523;51.880;12.630;2023-08-07T02:20:06;13.68;;;4.70;;
74967;SDS011;63523;51.880;12.630;2023-08-07T02:22:32;10.75;;;4.47;;
74967;SDS011;63523;51.880;12.630;2023-08-07T02:24:57;12.30;;;5.00;;
74967;SDS011;63523;51.880;12.630;2023-08-07T02:27:23;23.37;;;7.23;;
74967;SDS011;63523;51.880;12.630;2023-08-07T02:29:48;20.47;;;7.73;;
74967;SDS011;63523;51.880;12.630;2023-08-07T02:32:13;22.17;;;7.70;;
74967;SDS011;63523;51.880;12.630;2023-08-07T02:34:38;23.10;;;8.27;;
74967;SDS011;63523;51.880;12.630;2023-08-07T02:37:04;27.13;;;9.52;;
74967;SDS011;63523;51.880;12.630;2023-08-07T02:39:29;33.80;;;10.60;;
74967;SDS011;63523;51.880;12.630;2023-08-07T02:41:54;28.97;;;9.93;;
74967;SDS011;63523;51.880;12.630;2023-08-07T02:44:20;25.20;;;9.43;;
74967;SDS011;63523;51.880;12.630;2023-08-07T02:46:45;34.00;;;11.30;;
74967;SDS011;63523;51.880;12.630;2023-08-07T02:49:11;32.38;;;11.98;;
74967;SDS011;63523;51.880;12.630;2023-08-07T02:51:36;26.20;;;9.57;;
74967;SDS011;63523;51.880;12.630;2023-08-07T02:54:01;13.17;;;5.67;;
74967;SDS011;63523;51.880;12.630;2023-08-07T02:56:27;14.03;;;5.63;;
74967;SDS011;63523;51.880;12.630;2023-08-07T02:58:52;17.40;;;7.30;;
74967;SDS011;63523;51.880;12.630;2023-08-07T03:01:17;14.27;;;5.60;;
74967;SDS011;63523;51.880;12.630;2023-08-07T03:03:42;10.00;;;4.63;;
74967;SDS011;63523;51.880;12.630;2023-08-07T03:06:08;8.33;;;3.90;;
74967;SDS011;63523;51.880;12.630;2023-08-07T03:08:33;7.63;;;3.33;;
74967;SDS011;63523;51.880;12.630;2023-08-07T03:10:58;10.52;;;4.50;;
74967;SDS011;63523;51.880;12.630;2023-08-07T03:13:24;9.80;;;3.97;;
74967;SDS011;63523;51.880;12.630;2023-08-07T03:15:50;13.43;;;5.10;;
74967;SDS011;63523;51.880;12.630;2023-08-07T03:18:23;9.90;;;4.22;;
74967;SDS011;63523;51.880;12.630;2023-08-07T03:20:48;16.33;;;6.20;;
74967;SDS011;63523;51.880;12.630;2023-08-07T03:23:13;19.80;;;7.47;;
74967;SDS011;63523;51.880;12.630;2023-08-07T03:25:38;26.90;;;9.57;;
74967;SDS011;63523;51.880;12.630;2023-08-07T03:28:04;32.30;;;10.13;;
74967;SDS011;63523;51.880;12.630;2023-08-07T03:30:29;33.37;;;11.57;;
74967;SDS011;63523;51.880;12.630;2023-08-07T03:32:54;34.40;;;11.73;;
74967;SDS011;63523;51.880;12.630;2023-08-07T03:35:20;35.20;;;11.80;;
74967;SDS011;63523;51.880;12.630;2023-08-07T03:37:45;30.00;;;9.87;;
74967;SDS011;63523;51.880;12.630;2023-08-07T03:40:10;12.57;;;4.83;;
74967;SDS011;63523;51.880;12.630;2023-08-07T03:42:36;11.35;;;4.40;;
74967;SDS011;63523;51.880;12.630;2023-08-07T03:45:01;8.10;;;3.70;;
74967;SDS011;63523;51.880;12.630;2023-08-07T03:47:27;8.10;;;4.17;;
74967;SDS011;63523;51.880;12.630;2023-08-07T03:49:52;9.07;;;4.07;;
74967;SDS011;63523;51.880;12.630;2023-08-07T03:52:17;8.43;;;3.40;;
74967;SDS011;63523;51.880;12.630;2023-08-07T03:54:43;8.40;;;3.30;;
74967;SDS011;63523;51.880;12.630;2023-08-07T03:57:08;7.37;;;3.10;;
74967;SDS011;63523;51.880;12.630;2023-08-07T03:59:35;7.97;;;3.60;;
74967;SDS011;63523;51.880;12.630;2023-08-07T04:02:00;7.60;;;3.30;;
74967;SDS011;63523;51.880;12.630;2023-08-07T04:04:25;7.10;;;3.27;;
74967;SDS011;63523;51.880;12.630;2023-08-07T04:06:50;8.57;;;3.60;;
74967;SDS011;63523;51.880;12.630;2023-08-07T04:09:16;7.83;;;3.50;;
74967;SDS011;63523;51.880;12.630;2023-08-07T04:11:42;9.98;;;3.72;;
74967;SDS011;63523;51.880;12.630;2023-08-07T04:14:07;8.27;;;3.50;;
74967;SDS011;63523;51.880;12.630;2023-08-07T04:16:32;8.57;;;3.50;;
74967;SDS011;63523;51.880;12.630;2023-08-07T04:18:58;6.67;;;3.20;;
74967;SDS011;63523;51.880;12.630;2023-08-07T04:21:23;7.97;;;3.53;;
74967;SDS011;63523;51.880;12.630;2023-08-07T04:23:48;6.28;;;3.22;;
74967;SDS011;63523;51.880;12.630;2023-08-07T04:26:14;6.57;;;3.30;;
74967;SDS011;63523;51.880;12.630;2023-08-07T04:28:39;6.60;;;3.00;;
74967;SDS011;63523;51.880;12.630;2023-08-07T04:31:05;7.23;;;3.10;;
74967;SDS011;63523;51.880;12.630;2023-08-07T04:33:30;9.02;;;3.50;;
74967;SDS011;63523;51.880;12.630;2023-08-07T04:35:55;7.40;;;3.57;;
74967;SDS011;63523;51.880;12.630;2023-08-07T04:38:21;9.33;;;3.57;;
74967;SDS011;63523;51.880;12.630;2023-08-07T04:40:47;6.07;;;3.20;;
74967;SDS011;63523;51.880;12.630;2023-08-07T04:43:13;7.13;;;3.33;;
74967;SDS011;63523;51.880;12.630;2023-08-07T04:45:39;7.78;;;3.80;;
74967;SDS011;63523;51.880;12.630;2023-08-07T04:48:05;7.60;;;3.70;;
74967;SDS011;63523;51.880;12.630;2023-08-07T04:50:31;7.65;;;3.95;;
74967;SDS011;63523;51.880;12.630;2023-08-07T04:52:56;10.17;;;4.20;;
74967;SDS011;63523;51.880;12.630;2023-08-07T04:55:22;7.33;;;3.90;;
74967;SDS011;63523;51.880;12.630;2023-08-07T04:57:47;7.30;;;3.43;;
74967;SDS011;63523;51.880;12.630;2023-08-07T05:00:13;7.97;;;4.00;;
74967;SDS011;63523;51.880;12.630;2023-08-07T05:02:38;7.53;;;3.30;;
74967;SDS011;63523;51.880;12.630;2023-08-07T05:05:04;8.25;;;3.30;;
74967;SDS011;63523;51.880;12.630;2023-08-07T05:07:29;6.73;;;3.27;;
74967;SDS011;63523;51.880;12.630;2023-08-07T05:09:57;5.80;;;3.03;;
74967;SDS011;63523;51.880;12.630;2023-08-07T05:12:24;6.38;;;2.63;;
74967;SDS011;63523;51.880;12.630;2023-08-07T05:14:50;8.07;;;2.70;;
74967;SDS011;63523;51.880;12.630;2023-08-07T05:17:15;6.23;;;2.50;;
74967;SDS011;63523;51.880;12.630;2023-08-07T05:19:40;8.17;;;2.70;;
74967;SDS011;63523;51.880;12.630;2023-08-07T05:22:05;6.20;;;2.50;;
74967;SDS011;63523;51.880;12.630;2023-08-07T05:24:31;6.23;;;2.60;;
74967;SDS011;63523;51.880;12.630;2023-08-07T05:27:03;5.57;;;2.42;;
74967;SDS011;63523;51.880;12.630;2023-08-07T05:29:30;4.80;;;1.95;;
74967;SDS011;63523;51.880;12.630;2023-08-07T05:31:55;4.83;;;2.10;;
74967;SDS011;63523;51.880;12.630;2023-08-07T05:34:20;5.77;;;2.17;;
74967;SDS011;63523;51.880;12.630;2023-08-07T05:36:45;6.37;;;2.90;;
74967;SDS011;63523;51.880;12.630;2023-08-07T05:39:11;6.90;;;2.30;;
74967;SDS011;63523;51.880;12.630;2023-08-07T05:41:36;5.43;;;2.63;;
74967;SDS011;63523;51.880;12.630;2023-08-07T05:44:03;5.43;;;2.43;;
74967;SDS011;63523;51.880;12.630;2023-08-07T05:46:30;6.57;;;2.63;;
74967;SDS011;63523;51.880;12.630;2023-08-07T05:48:55;7.13;;;2.40;;
74967;SDS011;63523;51.880;12.630;2023-08-07T05:51:21;6.10;;;2.30;;
74967;SDS011;63523;51.880;12.630;2023-08-07T05:53:46;7.23;;;2.70;;
74967;SDS011;63523;51.880;12.630;2023-08-07T05:56:11;5.40;;;2.58;;
74967;SDS011;63523;51.880;12.630;2023-08-07T05:58:36;6.23;;;2.63;;
74967;SDS011;63523;51.880;12.630;2023-08-07T06:01:02;5.90;;;2.73;;
74967;SDS011;63523;51.880;12.630;2023-08-07T06:03:27;6.60;;;2.97;;
74967;SDS011;63523;51.880;12.630;2023-08-07T06:05:53;8.80;;;3.15;;
74967;SDS011;63523;51.880;12.630;2023-08-07T06:08:18;6.87;;;2.60;;
74967;SDS011;63523;51.880;12.630;2023-08-07T06:10:44;6.07;;;3.10;;
74967;SDS011;63523;51.880;12.630;2023-08-07T06:13:09;6.70;;;2.63;;
74967;SDS011;63523;51.880;12.630;2023-08-07T06:15:34;5.33;;;2.50;;
74967;SDS011;63523;51.880;12.630;2023-08-07T06:18:00;7.00;;;3.10;;
74967;SDS011;63523;51.880;12.630;2023-08-07T06:20:25;7.53;;;3.60;;
74967;SDS011;63523;51.880;12.630;2023-08-07T06:22:50;8.13;;;3.90;;
74967;SDS011;63523;51.880;12.630;2023-08-07T06:25:16;8.25;;;3.50;;
74967;SDS011;63523;51.880;12.630;2023-08-07T06:27:41;8.63;;;3.17;;
74967;SDS011;63523;51.880;12.630;2023-08-07T06:30:06;8.20;;;3.40;;
74967;SDS011;63523;51.880;12.630;2023-08-07T06:32:32;5.80;;;3.33;;
74967;SDS011;63523;51.880;12.630;2023-08-07T06:34:58;8.45;;;4.03;;
74967;SDS011;63523;51.880;12.630;2023-08-07T06:37:24;10.23;;;3.67;;
74967;SDS011;63523;51.880;12.630;2023-08-07T06:39:49;6.80;;;2.93;;
74967;SDS011;63523;51.880;12.630;2023-08-07T06:42:14;9.13;;;3.65;;
74967;SDS011;63523;51.880;12.630;2023-08-07T06:44:40;7.17;;;3.60;;
74967;SDS011;63523;51.880;12.630;2023-08-07T06:47:05;8.90;;;3.77;;
74967;SDS011;63523;51.880;12.630;2023-08-07T06:49:30;5.47;;;3.10;;
74967;SDS011;63523;51.880;12.630;2023-08-07T06:51:58;7.75;;;2.65;;
74967;SDS011;63523;51.880;12.630;2023-08-07T06:54:23;5.53;;;2.50;;
74967;SDS011;63523;51.880;12.630;2023-08-07T06:56:49;6.55;;;2.38;;
74967;SDS011;63523;51.880;12.630;2023-08-07T06:59:14;6.50;;;2.30;;
74967;SDS011;63523;51.880;12.630;2023-08-07T07:01:39;5.83;;;2.50;;
74967;SDS011;63523;51.880;12.630;2023-08-07T07:04:05;5.93;;;2.50;;
74967;SDS011;63523;51.880;12.630;2023-08-07T07:06:30;6.30;;;2.53;;
74967;SDS011;63523;51.880;12.630;2023-08-07T07:08:56;6.83;;;2.50;;
74967;SDS011;63523;51.880;12.630;2023-08-07T07:11:22;7.43;;;3.10;;
74967;SDS011;63523;51.880;12.630;2023-08-07T07:13:49;6.13;;;3.33;;
74967;SDS011;63523;51.880;12.630;2023-08-07T07:16:15;12.27;;;5.10;;
74967;SDS011;63523;51.880;12.630;2023-08-07T07:18:41;7.87;;;3.07;;
74967;SDS011;63523;51.880;12.630;2023-08-07T07:21:07;5.13;;;2.53;;
74967;SDS011;63523;51.880;12.630;2023-08-07T07:23:32;5.88;;;2.60;;
74967;SDS011;63523;51.880;12.630;2023-08-07T07:25:57;5.17;;;2.30;;
74967;SDS011;63523;51.880;12.630;2023-08-07T07:28:23;5.20;;;2.23;;
74967;SDS011;63523;51.880;12.630;2023-08-07T07:30:51;4.90;;;1.80;;
74967;SDS011;63523;51.880;12.630;2023-08-07T07:33:17;5.32;;;2.00;;
74967;SDS011;63523;51.880;12.630;2023-08-07T07:35:42;5.17;;;1.90;;
74967;SDS011;63523;51.880;12.630;2023-08-07T07:38:08;4.90;;;1.92;;
74967;SDS011;63523;51.880;12.630;2023-08-07T07:40:35;5.18;;;2.10;;
74967;SDS011;63523;51.880;12.630;2023-08-07T07:43:00;6.70;;;2.57;;
74967;SDS011;63523;51.880;12.630;2023-08-07T07:45:26;6.87;;;3.00;;
74967;SDS011;63523;51.880;12.630;2023-08-07T07:47:51;6.07;;;2.10;;
74967;SDS011;63523;51.880;12.630;2023-08-07T07:50:16;6.30;;;2.65;;
74967;SDS011;63523;51.880;12.630;2023-08-07T07:52:42;6.07;;;3.00;;
74967;SDS011;63523;51.880;12.630;2023-08-07T07:55:08;5.07;;;2.67;;
74967;SDS011;63523;51.880;12.630;2023-08-07T07:57:34;6.15;;;2.63;;
74967;SDS011;63523;51.880;12.630;2023-08-07T08:00:00;7.73;;;2.67;;
74967;SDS011;63523;51.880;12.630;2023-08-07T08:02:26;6.28;;;2.08;;
74967;SDS011;63523;51.880;12.630;2023-08-07T08:04:51;6.90;;;3.00;;
74967;SDS011;63523;51.880;12.630;2023-08-07T08:07:17;10.67;;;4.23;;
74967;SDS011;63523;51.880;12.630;2023-08-07T08:09:43;16.27;;;4.65;;
74967;SDS011;63523;51.880;12.630;2023-08-07T08:12:08;6.50;;;2.50;;
74967;SDS011;63523;51.880;12.630;2023-08-07T08:14:34;4.57;;;1.95;;
74967;SDS011;63523;51.880;12.630;2023-08-07T08:17:00;6.03;;;2.20;;
74967;SDS011;63523;51.880;12.630;2023-08-07T08:19:25;5.87;;;1.80;;
74967;SDS011;63523;51.880;12.630;2023-08-07T08:21:50;4.40;;;1.57;;
74967;SDS011;63523;51.880;12.630;2023-08-07T08:24:15;14.60;;;4.60;;
74967;SDS011;63523;51.880;12.630;2023-08-07T08:26:41;10.37;;;3.67;;
74967;SDS011;63523;51.880;12.630;2023-08-07T08:29:06;4.77;;;1.93;;
74967;SDS011;63523;51.880;12.630;2023-08-07T08:31:33;4.35;;;1.70;;
74967;SDS011;63523;51.880;12.630;2023-08-07T08:33:58;7.15;;;1.90;;
74967;SDS011;63523;51.880;12.630;2023-08-07T08:36:24;3.70;;;1.30;;
74967;SDS011;63523;51.880;12.630;2023-08-07T08:38:49;4.70;;;1.70;;
74967;SDS011;63523;51.880;12.630;2023-08-07T08:41:16;3.67;;;1.27;;
74967;SDS011;63523;51.880;12.630;2023-08-07T08:43:42;3.97;;;1.50;;
74967;SDS011;63523;51.880;12.630;2023-08-07T08:46:10;3.90;;;1.50;;
74967;SDS011;63523;51.880;12.630;2023-08-07T08:48:39;4.10;;;1.40;;
74967;SDS011;63523;51.880;12.630;2023-08-07T08:51:06;5.07;;;1.23;;
74967;SDS011;63523;51.880;12.630;2023-08-07T08:53:32;3.78;;;1.45;;
74967;SDS011;63523;51.880;12.630;2023-08-07T08:55:59;4.10;;;1.50;;
74967;SDS011;63523;51.880;12.630;2023-08-07T08:58:26;7.53;;;2.10;;
74967;SDS011;63523;51.880;12.630;2023-08-07T09:00:53;14.73;;;5.50;;
74967;SDS011;63523;51.880;12.630;2023-08-07T09:03:18;20.77;;;6.15;;
74967;SDS011;63523;51.880;12.630;2023-08-07T09:05:44;22.13;;;5.87;;
74967;SDS011;63523;51.880;12.630;2023-08-07T09:08:11;7.68;;;2.20;;
74967;SDS011;63523;51.880;12.630;2023-08-07T09:10:37;4.73;;;1.23;;
74967;SDS011;63523;51.880;12.630;2023-08-07T09:13:03;6.13;;;1.50;;
74967;SDS011;63523;51.880;12.630;2023-08-07T09:15:31;8.88;;;2.30;;
74967;SDS011;63523;51.880;12.630;2023-08-07T09:17:58;7.90;;;2.43;;
74967;SDS011;63523;51.880;12.630;2023-08-07T09:20:27;4.80;;;1.15;;
74967;SDS011;63523;51.880;12.630;2023-08-07T09:22:53;3.38;;;0.93;;
74967;SDS011;63523;51.880;12.630;2023-08-07T09:25:26;2.70;;;0.90;;
74967;SDS011;63523;51.880;12.630;2023-08-07T09:27:52;5.53;;;1.15;;
74967;SDS011;63523;51.880;12.630;2023-08-07T09:30:19;5.50;;;0.90;;
74967;SDS011;63523;51.880;12.630;2023-08-07T09:32:47;3.13;;;0.85;;
74967;SDS011;63523;51.880;12.630;2023-08-07T09:35:12;3.67;;;0.80;;
74967;SDS011;63523;51.880;12.630;2023-08-07T09:37:38;2.75;;;0.68;;
74967;SDS011;63523;51.880;12.630;2023-08-07T09:40:03;2.70;;;0.50;;
74967;SDS011;63523;51.880;12.630;2023-08-07T09:42:32;3.97;;;0.80;;
74967;SDS011;63523;51.880;12.630;2023-08-07T09:44:59;2.83;;;0.70;;
74967;SDS011;63523;51.880;12.630;2023-08-07T09:47:25;3.35;;;0.80;;
74967;SDS011;63523;51.880;12.630;2023-08-07T09:49:51;2.37;;;0.70;;
74967;SDS011;63523;51.880;12.630;2023-08-07T09:52:19;3.03;;;0.60;;
74967;SDS011;63523;51.880;12.630;2023-08-07T09:54:44;5.80;;;0.70;;
74967;SDS011;63523;51.880;12.630;2023-08-07T09:57:10;4.00;;;1.07;;
74967;SDS011;63523;51.880;12.630;2023-08-07T09:59:35;5.40;;;1.43;;
74967;SDS011;63523;51.880;12.630;2023-08-07T10:02:01;3.85;;;0.90;;
74967;SDS011;63523;51.880;12.630;2023-08-07T10:04:27;2.83;;;0.85;;
74967;SDS011;63523;51.880;12.630;2023-08-07T10:06:53;2.73;;;0.60;;
74967;SDS011;63523;51.880;12.630;2023-08-07T10:09:19;4.50;;;0.75;;
74967;SDS011;63523;51.880;12.630;2023-08-07T10:11:45;3.20;;;0.80;;
74967;SDS011;63523;51.880;12.630;2023-08-07T10:14:12;4.23;;;1.00;;
74967;SDS011;63523;51.880;12.630;2023-08-07T10:16:38;4.53;;;1.20;;
74967;SDS011;63523;51.880;12.630;2023-08-07T10:19:06;2.88;;;0.75;;
74967;SDS011;63523;51.880;12.630;2023-08-07T10:21:33;2.73;;;0.70;;
74967;SDS011;63523;51.880;12.630;2023-08-07T10:24:00;3.65;;;0.70;;
74967;SDS011;63523;51.880;12.630;2023-08-07T10:26:28;2.73;;;0.63;;
74967;SDS011;63523;51.880;12.630;2023-08-07T10:28:55;3.75;;;0.70;;
74967;SDS011;63523;51.880;12.630;2023-08-07T10:31:22;3.95;;;0.80;;
74967;SDS011;63523;51.880;12.630;2023-08-07T10:33:48;3.65;;;1.20;;
74967;SDS011;63523;51.880;12.630;2023-08-07T10:36:15;8.73;;;2.30;;
74967;SDS011;63523;51.880;12.630;2023-08-07T10:38:41;16.73;;;4.68;;
74967;SDS011;63523;51.880;12.630;2023-08-07T10:41:12;10.33;;;2.93;;
74967;SDS011;63523;51.880;12.630;2023-08-07T10:43:42;9.40;;;2.55;;
74967;SDS011;63523;51.880;12.630;2023-08-07T10:48:38;4.93;;;1.00;;
74967;SDS011;63523;51.880;12.630;2023-08-07T10:51:04;2.93;;;0.70;;
74967;SDS011;63523;51.880;12.630;2023-08-07T10:53:34;3.05;;;0.73;;
74967;SDS011;63523;51.880;12.630;2023-08-07T10:56:01;6.10;;;0.60;;
74967;SDS011;63523;51.880;12.630;2023-08-07T10:58:32;2.58;;;0.40;;
74967;SDS011;63523;51.880;12.630;2023-08-07T11:03:52;2.72;;;0.57;;
74967;SDS011;63523;51.880;12.630;2023-08-07T11:06:25;3.90;;;0.70;;
74967;SDS011;63523;51.880;12.630;2023-08-07T11:08:53;3.20;;;0.60;;
74967;SDS011;63523;51.880;12.630;2023-08-07T11:11:19;3.58;;;1.00;;
74967;SDS011;63523;51.880;12.630;2023-08-07T11:13:45;3.38;;;1.25;;
74967;SDS011;63523;51.880;12.630;2023-08-07T11:16:11;3.07;;;0.97;;
74967;SDS011;63523;51.880;12.630;2023-08-07T11:18:37;3.22;;;1.15;;
74967;SDS011;63523;51.880;12.630;2023-08-07T11:21:06;3.40;;;1.02;;
74967;SDS011;63523;51.880;12.630;2023-08-07T11:23:32;10.52;;;2.75;;
74967;SDS011;63523;51.880;12.630;2023-08-07T11:25:57;9.77;;;2.10;;
74967;SDS011;63523;51.880;12.630;2023-08-07T11:28:23;6.27;;;1.60;;
74967;SDS011;63523;51.880;12.630;2023-08-07T11:30:52;4.53;;;1.30;;
74967;SDS011;63523;51.880;12.630;2023-08-07T11:33:18;5.53;;;1.02;;
74967;SDS011;63523;51.880;12.630;2023-08-07T11:35:44;4.03;;;1.10;;
74967;SDS011;63523;51.880;12.630;2023-08-07T11:38:10;4.18;;;0.95;;
74967;SDS011;63523;51.880;12.630;2023-08-07T11:40:35;3.20;;;0.70;;
74967;SDS011;63523;51.880;12.630;2023-08-07T11:43:01;2.87;;;0.80;;
74967;SDS011;63523;51.880;12.630;2023-08-07T11:45:27;17.75;;;3.55;;
74967;SDS011;63523;51.880;12.630;2023-08-07T11:47:52;14.32;;;3.00;;
74967;SDS011;63523;51.880;12.630;2023-08-07T11:50:20;12.18;;;3.17;;
74967;SDS011;63523;51.880;12.630;2023-08-07T11:52:46;11.53;;;3.00;;
74967;SDS011;63523;51.880;12.630;2023-08-07T11:55:13;21.60;;;5.70;;
74967;SDS011;63523;51.880;12.630;2023-08-07T11:57:39;32.23;;;8.40;;
74967;SDS011;63523;51.880;12.630;2023-08-07T12:00:08;20.83;;;5.63;;
74967;SDS011;63523;51.880;12.630;2023-08-07T12:02:41;26.55;;;6.95;;
74967;SDS011;63523;51.880;12.630;2023-08-07T12:05:09;26.87;;;6.50;;
74967;SDS011;63523;51.880;12.630;2023-08-07T12:07:36;8.05;;;2.25;;
74967;SDS011;63523;51.880;12.630;2023-08-07T12:10:11;5.38;;;1.30;;
74967;SDS011;63523;51.880;12.630;2023-08-07T12:12:36;3.97;;;0.70;;
74967;SDS011;63523;51.880;12.630;2023-08-07T12:15:03;3.58;;;0.60;;
74967;SDS011;63523;51.880;12.630;2023-08-07T12:17:31;4.83;;;0.80;;
74967;SDS011;63523;51.880;12.630;2023-08-07T12:19:57;3.28;;;0.82;;
74967;SDS011;63523;51.880;12.630;2023-08-07T12:22:23;3.90;;;0.88;;
74967;SDS011;63523;51.880;12.630;2023-08-07T12:24:48;2.60;;;0.57;;
74967;SDS011;63523;51.880;12.630;2023-08-07T12:27:14;2.10;;;0.50;;
74967;SDS011;63523;51.880;12.630;2023-08-07T12:29:39;2.70;;;0.70;;
74967;SDS011;63523;51.880;12.630;2023-08-07T12:32:04;3.20;;;0.70;;
74967;SDS011;63523;51.880;12.630;2023-08-07T12:34:30;3.40;;;0.53;;
74967;SDS011;63523;51.880;12.630;2023-08-07T12:36:56;4.17;;;0.80;;
74967;SDS011;63523;51.880;12.630;2023-08-07T12:39:21;3.30;;;0.50;;
74967;SDS011;63523;51.880;12.630;2023-08-07T12:41:46;5.45;;;0.60;;
74967;SDS011;63523;51.880;12.630;2023-08-07T12:44:13;4.57;;;0.73;;
74967;SDS011;63523;51.880;12.630;2023-08-07T12:46:38;4.53;;;1.10;;
74967;SDS011;63523;51.880;12.630;2023-08-07T12:49:05;3.17;;;0.82;;
74967;SDS011;63523;51.880;12.630;2023-08-07T12:51:32;8.18;;;1.60;;
74967;SDS011;63523;51.880;12.630;2023-08-07T12:53:57;9.37;;;2.20;;
74967;SDS011;63523;51.880;12.630;2023-08-07T12:56:22;5.33;;;1.73;;
74967;SDS011;63523;51.880;12.630;2023-08-07T12:58:48;8.27;;;1.50;;
74967;SDS011;63523;51.880;12.630;2023-08-07T13:01:15;4.80;;;0.80;;
74967;SDS011;63523;51.880;12.630;2023-08-07T13:03:40;3.23;;;0.63;;
74967;SDS011;63523;51.880;12.630;2023-08-07T13:06:05;5.97;;;1.20;;
74967;SDS011;63523;51.880;12.630;2023-08-07T13:08:33;3.33;;;0.77;;
74967;SDS011;63523;51.880;12.630;2023-08-07T13:10:59;7.95;;;2.13;;
74967;SDS011;63523;51.880;12.630;2023-08-07T13:13:25;4.20;;;0.83;;
74967;SDS011;63523;51.880;12.630;2023-08-07T13:15:52;5.78;;;1.00;;
74967;SDS011;63523;51.880;12.630;2023-08-07T13:18:18;8.00;;;1.30;;
74967;SDS011;63523;51.880;12.630;2023-08-07T13:20:43;3.90;;;0.87;;
74967;SDS011;63523;51.880;12.630;2023-08-07T13:23:08;3.10;;;0.35;;
74967;SDS011;63523;51.880;12.630;2023-08-07T13:25:34;3.90;;;0.70;;
74967;SDS011;63523;51.880;12.630;2023-08-07T13:27:59;3.13;;;0.70;;
74967;SDS011;63523;51.880;12.630;2023-08-07T13:30:25;4.45;;;0.75;;
74967;SDS011;63523;51.880;12.630;2023-08-07T13:32:51;4.87;;;0.60;;
74967;SDS011;63523;51.880;12.630;2023-08-07T13:35:16;3.00;;;0.60;;
74967;SDS011;63523;51.880;12.630;2023-08-07T13:37:41;2.50;;;0.40;;
74967;SDS011;63523;51.880;12.630;2023-08-07T13:40:07;5.37;;;0.87;;
74967;SDS011;63523;51.880;12.630;2023-08-07T13:42:33;3.85;;;0.60;;
74967;SDS011;63523;51.880;12.630;2023-08-07T13:44:58;3.27;;;0.60;;
74967;SDS011;63523;51.880;12.630;2023-08-07T13:47:24;2.63;;;0.40;;
74967;SDS011;63523;51.880;12.630;2023-08-07T13:49:51;4.30;;;0.40;;
74967;SDS011;63523;51.880;12.630;2023-08-07T13:52:17;4.57;;;0.47;;
74967;SDS011;63523;51.880;12.630;2023-08-07T13:54:43;4.37;;;0.40;;
74967;SDS011;63523;51.880;12.630;2023-08-07T13:57:08;2.90;;;0.40;;
74967;SDS011;63523;51.880;12.630;2023-08-07T13:59:33;2.83;;;0.30;;
74967;SDS011;63523;51.880;12.630;2023-08-07T14:01:59;4.07;;;0.20;;
74967;SDS011;63523;51.880;12.630;2023-08-07T14:04:24;3.93;;;0.30;;
74967;SDS011;63523;51.880;12.630;2023-08-07T14:06:50;3.73;;;0.37;;
74967;SDS011;63523;51.880;12.630;2023-08-07T14:09:15;2.33;;;0.30;;
74967;SDS011;63523;51.880;12.630;2023-08-07T14:11:41;2.33;;;0.30;;
74967;SDS011;63523;51.880;12.630;2023-08-07T14:14:07;3.73;;;0.40;;
74967;SDS011;63523;51.880;12.630;2023-08-07T14:16:32;3.97;;;0.40;;
74967;SDS011;63523;51.880;12.630;2023-08-07T14:18:57;2.80;;;0.43;;
74967;SDS011;63523;51.880;12.630;2023-08-07T14:21:23;3.60;;;0.30;;
74967;SDS011;63523;51.880;12.630;2023-08-07T14:23:48;2.17;;;0.20;;
74967;SDS011;63523;51.880;12.630;2023-08-07T14:26:14;3.88;;;0.60;;
74967;SDS011;63523;51.880;12.630;2023-08-07T14:28:40;5.00;;;0.70;;
74967;SDS011;63523;51.880;12.630;2023-08-07T14:31:07;3.23;;;0.50;;